Terminal Aerodrome Forecast
Issued by NWS

Home | Current Version | Previous Version | Text Only | Print | Product List | Glossary On
Versions: 1 2 3 4 5 6 7 8 9 10 11 12 13 14 15 16 17 18 19 20 21 22 23 24 25 26 27 28 29
732
FTUS43 KLSX 222024 AAA
TAFUIN
TAF AMD
KUIN 222024Z 2220/2318 08006KT 1SM BR OVC004
     FM230000 08008KT 4SM BR OVC005
     FM230200 10007KT 2SM -SHRA BR OVC003
     FM230700 16006KT 3SM BR OVC003
     FM231500 27008KT 5SM BR OVC010=

USA.gov is the U.S. government's official web portal to all federal, state and local government web resources and services.